createdAt,value
2022-12-25T00:01:32.956Z,100.00
2022-12-25T00:04:00.336Z,100.00
2022-12-25T00:06:28.124Z,100.00
2022-12-25T00:08:55.338Z,100.00
2022-12-25T00:11:22.920Z,100.00
2022-12-25T00:13:51.065Z,100.00
2022-12-25T00:16:23.526Z,100.00
2022-12-25T00:18:58.944Z,100.00
2022-12-25T00:21:27.294Z,100.00
2022-12-25T00:23:57.282Z,100.00
2022-12-25T00:26:26.550Z,100.00
2022-12-25T00:28:57.996Z,100.00
2022-12-25T00:31:26.515Z,100.00
2022-12-25T00:33:54.115Z,100.00
2022-12-25T00:36:23.721Z,100.00
2022-12-25T00:38:51.034Z,100.00
2022-12-25T00:41:41.298Z,100.00
2022-12-25T00:44:11.371Z,100.00
2022-12-25T00:46:39.104Z,100.00
2022-12-25T00:49:07.079Z,100.00
2022-12-25T00:51:34.687Z,100.00
2022-12-25T00:54:02.508Z,100.00
2022-12-25T00:56:30.117Z,100.00
2022-12-25T00:58:57.402Z,100.00
2022-12-25T01:01:25.023Z,100.00
2022-12-25T01:03:52.340Z,100.00
2022-12-25T01:06:19.842Z,100.00
2022-12-25T01:09:05.768Z,100.00
2022-12-25T01:11:33.505Z,100.00
2022-12-25T01:14:00.854Z,100.00
2022-12-25T01:16:29.416Z,100.00
2022-12-25T01:18:56.754Z,100.00
2022-12-25T01:21:24.633Z,100.00
2022-12-25T01:23:53.573Z,100.00
2022-12-25T01:26:25.583Z,100.00
2022-12-25T01:28:54.002Z,100.00
2022-12-25T01:31:24.739Z,100.00
2022-12-25T01:33:52.839Z,100.00
2022-12-25T01:36:24.995Z,100.00
2022-12-25T01:38:54.100Z,100.00
2022-12-25T01:41:24.768Z,100.00
2022-12-25T01:44:04.918Z,100.00
2022-12-25T01:46:33.945Z,100.00
2022-12-25T01:49:15.147Z,100.00
2022-12-25T01:51:46.571Z,100.00
2022-12-25T01:54:24.488Z,100.00
2022-12-25T01:56:57.558Z,100.00
2022-12-25T01:59:28.032Z,100.00
2022-12-25T02:01:57.163Z,100.00
2022-12-25T02:04:38.960Z,100.00
2022-12-25T02:07:24.437Z,100.00
2022-12-25T02:09:52.886Z,100.00
2022-12-25T02:12:23.820Z,100.00
2022-12-25T02:14:58.344Z,100.00
2022-12-25T02:17:33.093Z,100.00
2022-12-25T02:20:27.681Z,99.45
2022-12-25T02:23:31.886Z,99.03
2022-12-25T02:26:45.349Z,98.52
2022-12-25T02:29:42.615Z,98.52
2022-12-25T02:32:32.003Z,97.37
2022-12-25T02:35:08.656Z,97.63
2022-12-25T02:38:11.022Z,98.10
2022-12-25T02:40:46.479Z,98.28
2022-12-25T02:43:45.091Z,98.41
2022-12-25T02:46:36.616Z,98.25
2022-12-25T02:49:33.915Z,97.88
2022-12-25T02:52:35.418Z,97.84
2022-12-25T02:55:32.552Z,97.41
2022-12-25T02:58:27.272Z,96.72
2022-12-25T03:01:22.635Z,96.76
2022-12-25T03:04:15.271Z,97.00
2022-12-25T03:06:59.666Z,96.91
2022-12-25T03:09:54.079Z,96.94
2022-12-25T03:12:38.847Z,96.53
2022-12-25T03:15:28.626Z,96.60
2022-12-25T03:18:01.570Z,96.60
2022-12-25T03:20:49.103Z,96.71
2022-12-25T03:23:44.654Z,97.07
2022-12-25T03:26:30.932Z,97.13
2022-12-25T03:28:58.237Z,96.94
2022-12-25T03:31:51.544Z,97.18
2022-12-25T03:35:07.255Z,96.99
2022-12-25T03:38:23.431Z,96.76
2022-12-25T03:41:12.196Z,96.59
2022-12-25T03:44:26.551Z,96.43
2022-12-25T03:47:37.353Z,96.35
2022-12-25T03:50:36.717Z,96.13
2022-12-25T03:53:29.639Z,96.46
2022-12-25T03:56:17.686Z,96.50
2022-12-25T03:59:23.191Z,96.00
2022-12-25T04:02:10.870Z,95.94
2022-12-25T04:04:57.055Z,95.61
2022-12-25T04:07:43.313Z,95.47
2022-12-25T04:10:29.499Z,95.14
2022-12-25T04:13:15.560Z,94.91
2022-12-25T04:16:01.326Z,94.47
2022-12-25T04:18:47.434Z,94.61
2022-12-25T04:21:33.283Z,94.50
2022-12-25T04:24:19.525Z,94.45
2022-12-25T04:27:05.228Z,94.29
2022-12-25T04:29:51.054Z,94.90
2022-12-25T04:32:36.853Z,94.87
2022-12-25T04:35:23.335Z,95.10
2022-12-25T04:37:50.624Z,95.04
2022-12-25T04:40:19.257Z,94.96
2022-12-25T04:42:46.634Z,94.82
2022-12-25T04:45:14.131Z,94.48
2022-12-25T04:47:41.332Z,94.49
2022-12-25T04:50:09.450Z,93.49
2022-12-25T04:52:39.533Z,93.41
2022-12-25T04:55:10.074Z,93.67
2022-12-25T04:57:37.693Z,93.47
2022-12-25T05:00:07.170Z,93.51
2022-12-25T05:02:34.781Z,93.53
2022-12-25T05:05:02.559Z,93.39
2022-12-25T05:07:29.898Z,93.02
2022-12-25T05:09:58.337Z,93.21
2022-12-25T05:12:25.660Z,93.13
2022-12-25T05:14:53.191Z,92.97
2022-12-25T05:17:20.566Z,93.20
2022-12-25T05:19:48.089Z,93.06
2022-12-25T05:22:15.397Z,93.20
2022-12-25T05:24:42.899Z,93.64
2022-12-25T05:27:10.149Z,94.40
2022-12-25T05:29:37.688Z,94.82
2022-12-25T05:32:05.311Z,95.94
2022-12-25T05:34:33.008Z,96.03
2022-12-25T05:37:00.354Z,96.53
2022-12-25T05:39:27.857Z,96.57
2022-12-25T05:41:55.223Z,96.47
2022-12-25T05:44:23.032Z,97.32
2022-12-25T05:46:50.449Z,97.30
2022-12-25T05:49:18.112Z,97.32
2022-12-25T05:51:45.376Z,97.38
2022-12-25T05:54:12.938Z,97.79
2022-12-25T05:56:40.145Z,97.90
2022-12-25T05:59:07.644Z,97.69
2022-12-25T06:01:34.973Z,98.15
2022-12-25T06:04:05.807Z,98.14
2022-12-25T06:06:37.556Z,98.33
2022-12-25T06:09:05.022Z,98.68
2022-12-25T06:11:32.275Z,99.07
2022-12-25T06:13:59.774Z,99.22
2022-12-25T06:16:27.078Z,98.98
2022-12-25T06:18:54.647Z,99.25
2022-12-25T06:21:22.122Z,99.03
2022-12-25T06:23:49.838Z,99.18
2022-12-25T06:26:19.549Z,99.49
2022-12-25T06:28:47.997Z,99.77
2022-12-25T06:31:20.888Z,99.74
2022-12-25T06:33:49.812Z,99.55
2022-12-25T06:36:22.806Z,99.57
2022-12-25T06:38:51.100Z,99.66
2022-12-25T06:41:25.489Z,99.37
2022-12-25T06:43:58.124Z,99.72
2022-12-25T06:46:28.639Z,99.61
2022-12-25T06:48:58.210Z,99.40
2022-12-25T06:51:30.166Z,99.55
2022-12-25T06:53:59.014Z,99.20
2022-12-25T06:56:28.641Z,99.10
2022-12-25T06:59:02.758Z,98.98
2022-12-25T07:02:12.875Z,98.66
2022-12-25T07:04:43.172Z,98.62
2022-12-25T07:07:10.860Z,98.46
2022-12-25T07:09:39.359Z,98.29
2022-12-25T07:12:19.960Z,98.19
2022-12-25T07:14:50.187Z,98.12
2022-12-25T07:17:18.933Z,98.06
2022-12-25T07:19:47.464Z,97.69
2022-12-25T07:22:15.845Z,97.30
2022-12-25T07:24:43.450Z,97.18
2022-12-25T07:27:11.091Z,96.94
2022-12-25T07:29:38.654Z,96.42
2022-12-25T07:32:07.033Z,95.83
2022-12-25T07:34:34.665Z,95.96
2022-12-25T07:37:02.011Z,95.91
2022-12-25T07:39:29.555Z,95.45
2022-12-25T07:41:56.886Z,95.39
2022-12-25T07:44:24.836Z,94.95
2022-12-25T07:46:52.125Z,94.73
2022-12-25T07:49:19.873Z,94.29
2022-12-25T07:51:47.167Z,94.16
2022-12-25T07:54:14.777Z,93.97
2022-12-25T07:56:41.975Z,94.03
2022-12-25T07:59:09.472Z,93.42
2022-12-25T08:01:36.830Z,93.38
2022-12-25T08:04:04.632Z,93.11
2022-12-25T08:06:35.208Z,92.74
2022-12-25T08:09:09.652Z,92.33
2022-12-25T08:11:38.461Z,92.27
2022-12-25T08:14:08.787Z,91.50
2022-12-25T08:16:39.966Z,91.11
2022-12-25T08:19:08.594Z,90.80
2022-12-25T08:21:36.263Z,90.99
2022-12-25T08:24:03.875Z,90.77
2022-12-25T08:26:31.528Z,90.57
2022-12-25T08:28:59.006Z,90.36
2022-12-25T08:31:30.018Z,89.91
2022-12-25T08:33:58.719Z,89.62
2022-12-25T08:36:26.384Z,89.33
2022-12-25T08:39:00.355Z,88.39
2022-12-25T08:41:30.231Z,86.55
2022-12-25T08:43:57.984Z,81.36
2022-12-25T08:46:25.579Z,74.83
2022-12-25T08:48:52.855Z,69.10
2022-12-25T08:51:23.416Z,61.13
2022-12-25T08:53:53.245Z,55.70
2022-12-25T08:56:21.233Z,53.93
2022-12-25T08:58:48.461Z,51.27
2022-12-25T09:01:15.989Z,47.13
2022-12-25T09:03:43.885Z,46.67
2022-12-25T09:06:16.562Z,44.68
2022-12-25T09:08:49.273Z,43.11
2022-12-25T09:11:19.967Z,42.80
2022-12-25T09:13:48.981Z,41.05
2022-12-25T09:16:21.232Z,40.56
2022-12-25T09:18:49.482Z,39.75
2022-12-25T09:21:19.255Z,36.20
2022-12-25T09:23:46.537Z,35.55
2022-12-25T09:26:18.063Z,33.79
2022-12-25T09:28:51.184Z,33.93
2022-12-25T09:31:22.059Z,33.21
2022-12-25T09:33:50.834Z,31.54
2022-12-25T09:36:18.794Z,31.88
2022-12-25T09:38:46.039Z,30.49
2022-12-25T09:41:53.760Z,29.85
2022-12-25T09:44:38.015Z,30.61
2022-12-25T09:47:14.336Z,29.19
2022-12-25T09:49:54.424Z,28.58
2022-12-25T09:52:52.790Z,28.00
2022-12-25T09:55:26.928Z,27.11
2022-12-25T09:58:01.573Z,27.07
2022-12-25T10:00:59.768Z,26.39
2022-12-25T10:03:40.785Z,25.96
2022-12-25T10:06:25.271Z,25.31
2022-12-25T10:09:36.077Z,24.93
2022-12-25T10:12:55.042Z,25.14
2022-12-25T10:15:59.020Z,23.91
2022-12-25T10:18:57.128Z,23.52
2022-12-25T10:21:25.408Z,23.11
2022-12-25T10:23:58.744Z,24.55
2022-12-25T10:26:30.018Z,23.78
2022-12-25T10:29:13.300Z,23.51
2022-12-25T10:31:45.432Z,22.94
2022-12-25T10:34:15.297Z,22.39
2022-12-25T10:36:46.402Z,23.35
2022-12-25T10:39:26.590Z,22.66
2022-12-25T10:42:40.597Z,22.23
2022-12-25T10:45:09.931Z,22.58
2022-12-25T10:47:42.667Z,21.89
2022-12-25T10:50:21.457Z,21.54
2022-12-25T10:53:04.443Z,20.99
2022-12-25T10:55:33.379Z,21.66
2022-12-25T10:58:02.306Z,21.97
2022-12-25T11:00:33.122Z,21.73
2022-12-25T11:03:01.149Z,22.28
2022-12-25T11:05:36.534Z,21.77
2022-12-25T11:08:15.766Z,22.50
2022-12-25T11:10:44.170Z,22.55
2022-12-25T11:13:30.784Z,22.17
2022-12-25T11:16:11.979Z,21.53
2022-12-25T11:18:53.773Z,21.23
2022-12-25T11:21:32.171Z,20.79
2022-12-25T11:24:06.925Z,20.79
2022-12-25T11:26:49.700Z,20.59
2022-12-25T11:29:39.018Z,20.62
2022-12-25T11:32:19.468Z,21.38
2022-12-25T11:34:49.184Z,21.87
2022-12-25T11:37:41.962Z,22.06
2022-12-25T11:40:41.719Z,22.11
2022-12-25T11:43:48.725Z,21.94
2022-12-25T11:46:31.388Z,21.64
2022-12-25T11:49:08.313Z,20.74
2022-12-25T11:51:43.610Z,20.60
2022-12-25T11:54:10.853Z,20.93
2022-12-25T11:56:38.763Z,21.24
2022-12-25T11:59:37.392Z,20.01
2022-12-25T12:02:49.637Z,21.01
2022-12-25T12:05:17.337Z,20.67
2022-12-25T12:08:06.475Z,21.25
2022-12-25T12:11:18.407Z,21.38
2022-12-25T12:14:14.985Z,21.79
2022-12-25T12:16:42.435Z,21.75
2022-12-25T12:19:34.581Z,21.47
2022-12-25T12:22:05.152Z,20.96
2022-12-25T12:24:44.305Z,20.40
2022-12-25T12:27:27.911Z,19.33
2022-12-25T12:29:59.787Z,18.58
2022-12-25T12:32:43.177Z,18.03
2022-12-25T12:35:28.020Z,18.81
2022-12-25T12:38:17.170Z,18.80
2022-12-25T12:41:04.748Z,18.57
2022-12-25T12:43:39.043Z,19.53
2022-12-25T12:46:31.571Z,19.16
2022-12-25T12:49:35.145Z,18.66
2022-12-25T12:52:23.914Z,18.43
2022-12-25T12:54:59.233Z,18.25
2022-12-25T12:57:32.828Z,17.93
2022-12-25T13:00:08.691Z,17.89
2022-12-25T13:03:06.136Z,17.62
2022-12-25T13:05:46.246Z,17.56
2022-12-25T13:09:15.849Z,17.37
2022-12-25T13:11:44.802Z,17.58
2022-12-25T13:14:23.182Z,17.87
2022-12-25T13:16:54.818Z,18.67
2022-12-25T13:19:27.538Z,19.04
2022-12-25T13:22:01.983Z,18.88
2022-12-25T13:24:34.230Z,19.83
2022-12-25T13:27:26.730Z,20.35
2022-12-25T13:29:54.597Z,20.45
2022-12-25T13:32:34.158Z,20.50
2022-12-25T13:35:02.340Z,21.18
2022-12-25T13:37:31.893Z,21.39
2022-12-25T13:40:07.298Z,21.44
2022-12-25T13:42:40.142Z,21.36
2022-12-25T13:45:14.531Z,21.98
2022-12-25T13:48:01.885Z,22.50
2022-12-25T13:50:34.647Z,22.53
2022-12-25T13:53:16.615Z,23.68
2022-12-25T13:55:55.524Z,23.84
2022-12-25T13:58:30.888Z,24.15
2022-12-25T14:01:03.063Z,24.96
2022-12-25T14:03:46.577Z,25.80
2022-12-25T14:06:20.655Z,26.36
2022-12-25T14:08:50.348Z,26.99
2022-12-25T14:11:25.780Z,28.11
2022-12-25T14:14:03.211Z,28.51
2022-12-25T14:16:32.744Z,29.57
2022-12-25T14:19:02.951Z,30.92
2022-12-25T14:21:41.857Z,31.92
2022-12-25T14:24:17.353Z,32.47
2022-12-25T14:26:45.135Z,33.82
2022-12-25T14:29:20.446Z,35.11
2022-12-25T14:31:50.190Z,37.10
2022-12-25T14:34:27.595Z,38.52
2022-12-25T14:36:55.568Z,40.52
2022-12-25T14:39:35.202Z,42.39
2022-12-25T14:42:20.693Z,44.84
2022-12-25T14:45:35.953Z,46.21
2022-12-25T14:48:25.461Z,48.26
2022-12-25T14:51:30.602Z,50.87
2022-12-25T14:54:03.368Z,50.95
2022-12-25T14:56:39.276Z,54.67
2022-12-25T14:59:10.292Z,55.61
2022-12-25T15:01:41.561Z,56.69
2022-12-25T15:04:12.117Z,59.11
2022-12-25T15:06:51.752Z,59.60
2022-12-25T15:09:19.527Z,59.98
2022-12-25T15:11:56.405Z,61.74
2022-12-25T15:14:26.215Z,60.40
2022-12-25T15:17:01.370Z,63.34
2022-12-25T15:19:38.869Z,63.42
2022-12-25T15:22:06.717Z,65.11
2022-12-25T15:24:34.252Z,66.61
2022-12-25T15:27:01.677Z,66.80
2022-12-25T15:30:07.976Z,67.24
2022-12-25T15:32:20.675Z,68.57
2022-12-25T15:34:50.050Z,68.98
2022-12-25T15:37:20.484Z,68.42
2022-12-25T15:39:47.978Z,68.08
2022-12-25T15:42:21.746Z,68.49
2022-12-25T15:44:49.966Z,68.75
2022-12-25T15:47:20.269Z,68.93
2022-12-25T15:49:47.976Z,68.52
2022-12-25T15:52:17.661Z,68.39
2022-12-25T15:54:45.460Z,69.43
2022-12-25T15:57:23.139Z,69.38
2022-12-25T15:59:50.660Z,69.38
2022-12-25T16:02:20.848Z,69.91
2022-12-25T16:04:51.080Z,69.89
2022-12-25T16:07:23.594Z,71.02
2022-12-25T16:09:52.014Z,71.36
2022-12-25T16:12:19.970Z,70.63
2022-12-25T16:14:47.532Z,69.88
2022-12-25T16:17:17.170Z,70.32
2022-12-25T16:19:45.545Z,70.32
2022-12-25T16:22:18.605Z,70.93
2022-12-25T16:24:51.908Z,72.47
2022-12-25T16:27:19.163Z,71.71
2022-12-25T16:29:47.226Z,71.41
2022-12-25T16:32:15.966Z,71.80
2022-12-25T16:34:43.671Z,71.87
2022-12-25T16:37:10.949Z,73.04
2022-12-25T16:39:38.580Z,71.84
2022-12-25T16:42:06.008Z,72.30
2022-12-25T16:44:37.611Z,73.10
2022-12-25T16:47:04.961Z,74.36
2022-12-25T16:49:32.644Z,74.87
2022-12-25T16:51:59.886Z,73.75
2022-12-25T16:54:27.528Z,74.35
2022-12-25T16:56:54.766Z,75.04
2022-12-25T16:59:22.359Z,74.79
2022-12-25T17:01:49.721Z,74.49
2022-12-25T17:04:17.350Z,74.50
2022-12-25T17:06:44.604Z,75.87
2022-12-25T17:09:12.386Z,76.91
2022-12-25T17:11:39.801Z,76.38
2022-12-25T17:14:07.430Z,76.73
2022-12-25T17:16:38.158Z,76.77
2022-12-25T17:19:15.967Z,77.32
2022-12-25T17:21:43.359Z,77.81
2022-12-25T17:24:10.975Z,77.96
2022-12-25T17:26:40.750Z,78.17
2022-12-25T17:29:10.327Z,78.58
2022-12-25T17:31:39.586Z,79.45
2022-12-25T17:34:09.108Z,79.27
2022-12-25T17:36:37.132Z,79.18
2022-12-25T17:39:06.439Z,79.21
2022-12-25T17:41:34.526Z,78.83
2022-12-25T17:44:02.613Z,78.02
2022-12-25T17:46:31.539Z,78.28
2022-12-25T17:49:01.191Z,78.00
2022-12-25T17:51:30.990Z,77.79
2022-12-25T17:54:03.354Z,78.38
2022-12-25T17:56:32.476Z,77.95
2022-12-25T17:59:08.212Z,78.07
2022-12-25T18:01:38.852Z,78.50
2022-12-25T18:04:07.375Z,78.88
2022-12-25T18:06:36.665Z,78.32
2022-12-25T18:09:06.386Z,77.36
2022-12-25T18:11:34.018Z,77.33
2022-12-25T18:14:07.343Z,77.63
2022-12-25T18:16:38.512Z,78.16
2022-12-25T18:19:06.813Z,77.46
2022-12-25T18:21:34.270Z,78.06
2022-12-25T18:24:06.445Z,78.48
2022-12-25T18:26:34.295Z,78.47
2022-12-25T18:29:02.328Z,78.51
2022-12-25T18:31:32.822Z,78.33
2022-12-25T18:34:00.816Z,78.46
2022-12-25T18:36:30.045Z,78.89
2022-12-25T18:38:58.933Z,79.14
2022-12-25T18:41:28.828Z,79.03
2022-12-25T18:43:59.829Z,79.92
2022-12-25T18:46:28.061Z,79.47
2022-12-25T18:48:57.193Z,80.08
2022-12-25T18:51:27.691Z,80.96
2022-12-25T18:53:58.809Z,81.34
2022-12-25T18:56:26.127Z,81.74
2022-12-25T18:58:53.628Z,81.71
2022-12-25T19:01:23.836Z,82.56
2022-12-25T19:03:56.066Z,82.10
2022-12-25T19:06:32.701Z,83.11
2022-12-25T19:09:00.334Z,83.05
2022-12-25T19:11:27.684Z,82.88
2022-12-25T19:13:56.035Z,83.07
2022-12-25T19:16:23.368Z,82.22
2022-12-25T19:18:50.993Z,82.61
2022-12-25T19:21:18.245Z,82.14
2022-12-25T19:23:45.972Z,81.94
2022-12-25T19:26:13.294Z,82.22
2022-12-25T19:28:41.488Z,82.48
2022-12-25T19:31:10.132Z,82.25
2022-12-25T19:33:40.470Z,81.66
2022-12-25T19:36:12.852Z,82.11
2022-12-25T19:38:40.974Z,81.94
2022-12-25T19:41:17.828Z,82.25
2022-12-25T19:43:48.196Z,82.53
2022-12-25T19:46:26.282Z,82.02
2022-12-25T19:48:56.307Z,82.38
2022-12-25T19:51:29.056Z,82.33
2022-12-25T19:53:57.098Z,82.40
2022-12-25T19:56:26.784Z,82.75
2022-12-25T19:58:55.775Z,82.30
2022-12-25T20:01:27.436Z,82.26
2022-12-25T20:03:55.763Z,81.95
2022-12-25T20:06:32.852Z,82.22
2022-12-25T20:09:07.410Z,82.31
2022-12-25T20:11:37.304Z,82.02
2022-12-25T20:14:07.355Z,82.00
2022-12-25T20:16:38.743Z,82.18
2022-12-25T20:19:07.723Z,82.00
2022-12-25T20:21:35.432Z,82.23
2022-12-25T20:24:03.255Z,81.98
2022-12-25T20:26:32.392Z,81.55
2022-12-25T20:29:00.123Z,82.22
2022-12-25T20:31:31.343Z,82.66
2022-12-25T20:34:06.083Z,83.09
2022-12-25T20:36:37.760Z,83.40
2022-12-25T20:39:09.997Z,83.29
2022-12-25T20:41:39.742Z,83.18
2022-12-25T20:44:10.381Z,82.90
2022-12-25T20:46:38.192Z,82.63
2022-12-25T20:49:06.094Z,82.43
2022-12-25T20:51:33.605Z,82.51
2022-12-25T20:54:06.508Z,82.29
2022-12-25T20:56:34.405Z,82.90
2022-12-25T20:59:02.952Z,82.71
2022-12-25T21:01:31.885Z,82.43
2022-12-25T21:03:59.723Z,82.87
2022-12-25T21:06:27.296Z,82.93
2022-12-25T21:08:55.008Z,83.40
2022-12-25T21:11:22.781Z,83.72
2022-12-25T21:13:50.814Z,83.22
2022-12-25T21:16:22.361Z,83.38
2022-12-25T21:18:53.261Z,83.89
2022-12-25T21:21:21.925Z,83.72
2022-12-25T21:23:49.685Z,83.77
2022-12-25T21:26:28.989Z,83.94
2022-12-25T21:29:00.564Z,84.11
2022-12-25T21:31:29.148Z,83.93
2022-12-25T21:33:57.941Z,84.06
2022-12-25T21:36:34.612Z,83.30
2022-12-25T21:39:10.837Z,83.50
2022-12-25T21:41:39.543Z,83.39
2022-12-25T21:44:08.842Z,82.93
2022-12-25T21:46:36.216Z,83.05
2022-12-25T21:49:04.254Z,83.59
2022-12-25T21:51:52.796Z,83.71
2022-12-25T21:54:23.104Z,83.86
2022-12-25T21:56:50.983Z,84.10
2022-12-25T21:59:21.831Z,83.86
2022-12-25T22:01:51.817Z,83.63
2022-12-25T22:04:23.337Z,83.68
2022-12-25T22:07:09.471Z,84.56
2022-12-25T22:09:37.865Z,84.32
2022-12-25T22:12:28.565Z,84.26
2022-12-25T22:15:06.353Z,84.75
2022-12-25T22:17:58.511Z,84.25
2022-12-25T22:20:38.200Z,84.66
2022-12-25T22:23:05.984Z,84.45
2022-12-25T22:25:33.661Z,84.77
2022-12-25T22:28:00.999Z,84.57
2022-12-25T22:30:29.778Z,84.77
2022-12-25T22:32:57.587Z,84.77
2022-12-25T22:35:25.727Z,84.87
2022-12-25T22:37:54.254Z,84.91
2022-12-25T22:40:22.668Z,84.68
2022-12-25T22:42:54.032Z,84.67
2022-12-25T22:45:21.882Z,84.66
2022-12-25T22:47:50.281Z,84.31
2022-12-25T22:50:18.025Z,84.38
2022-12-25T22:52:46.694Z,84.41
2022-12-25T22:55:18.631Z,84.50
2022-12-25T22:57:46.211Z,84.48
2022-12-25T23:00:14.288Z,84.18
2022-12-25T23:02:41.792Z,84.85
2022-12-25T23:05:09.673Z,84.68
2022-12-25T23:07:37.083Z,84.54
2022-12-25T23:10:06.777Z,84.27
2022-12-25T23:12:53.004Z,84.35
2022-12-25T23:15:20.648Z,83.88
2022-12-25T23:18:06.632Z,83.94
2022-12-25T23:20:52.974Z,83.60
2022-12-25T23:23:38.810Z,83.51
2022-12-25T23:26:09.652Z,83.40
2022-12-25T23:29:01.030Z,83.39
2022-12-25T23:31:36.909Z,83.35
2022-12-25T23:34:06.735Z,83.68
2022-12-25T23:36:35.136Z,84.04
2022-12-25T23:39:09.692Z,83.60
2022-12-25T23:41:40.491Z,83.34
2022-12-25T23:44:10.256Z,83.42
2022-12-25T23:46:38.784Z,83.40
2022-12-25T23:49:06.952Z,83.48
2022-12-25T23:51:43.633Z,83.46
2022-12-25T23:54:18.679Z,84.18
2022-12-25T23:56:46.458Z,84.55
2022-12-25T23:59:14.695Z,84.83
